createdAt,value
2019-02-05T00:00:00.486Z,98728.58
2019-02-05T00:05:05.740Z,98729.53
2019-02-05T00:10:10.930Z,98729.64
2019-02-05T00:15:16.432Z,98730.45
2019-02-05T00:20:20.531Z,98743.26
2019-02-05T00:25:25.980Z,98743.26
2019-02-05T00:30:34.040Z,98749.22
2019-02-05T00:35:39.290Z,98752.52
2019-02-05T00:40:43.412Z,98752.52
2019-02-05T00:45:47.856Z,98766.67
2019-02-05T00:50:53.014Z,98764.42
2019-02-05T00:55:57.369Z,98764.87
2019-02-05T01:01:01.398Z,98755.23
2019-02-05T01:06:05.889Z,98765.80
2019-02-05T01:11:10.341Z,98759.89
2019-02-05T01:16:14.657Z,98758.89
2019-02-05T01:21:19.743Z,98753.25
2019-02-05T01:26:29.013Z,98746.67
2019-02-05T01:31:29.663Z,98744.86
2019-02-05T01:36:35.471Z,98735.11
2019-02-05T01:41:39.376Z,98731.05
2019-02-05T01:46:43.883Z,98734.61
2019-02-05T01:51:48.808Z,98729.17
2019-02-05T01:56:53.275Z,98737.75
2019-02-05T02:01:57.102Z,98738.64
2019-02-05T02:07:01.006Z,98739.61
2019-02-05T02:12:07.373Z,98728.45
2019-02-05T02:17:12.075Z,98727.71
2019-02-05T02:22:20.679Z,98725.44
2019-02-05T02:27:25.478Z,98719.11
2019-02-05T02:32:29.928Z,98717.91
2019-02-05T02:37:33.639Z,98709.19
2019-02-05T02:42:37.464Z,98702.27
2019-02-05T02:47:41.874Z,98708.70
2019-02-05T02:52:45.586Z,98708.20
2019-02-05T02:57:50.068Z,98708.95
2019-02-05T03:02:53.980Z,98712.60
2019-02-05T03:07:59.691Z,98719.06
2019-02-05T03:13:03.690Z,98718.31
2019-02-05T03:18:10.047Z,98720.85
2019-02-05T03:23:15.316Z,98730.13
2019-02-05T03:28:20.051Z,98727.78
2019-02-05T03:33:26.923Z,98726.02
2019-02-05T03:38:31.173Z,98728.43
2019-02-05T03:43:36.714Z,98734.80
2019-02-05T03:48:41.785Z,98743.72
2019-02-05T03:53:50.995Z,98737.54
2019-02-05T03:59:31.710Z,98733.43
2019-02-05T04:05:28.692Z,98735.69
2019-02-05T04:11:00.205Z,98749.31
2019-02-05T04:16:47.032Z,98756.60
2019-02-05T04:22:41.770Z,98751.66
2019-02-05T04:28:21.667Z,98748.45
2019-02-05T04:34:06.344Z,98746.26
2019-02-05T04:39:53.469Z,98740.62
2019-02-05T04:45:47.645Z,98736.02
2019-02-05T04:51:44.642Z,98734.42
2019-02-05T04:57:56.839Z,98734.24
2019-02-05T05:03:44.841Z,98754.56
2019-02-05T05:09:10.988Z,98767.95
2019-02-05T05:14:14.975Z,98771.73
2019-02-05T05:19:19.365Z,98774.09
2019-02-05T05:24:23.792Z,98771.41
2019-02-05T05:29:28.210Z,98770.73
2019-02-05T05:34:34.591Z,98777.45
2019-02-05T05:39:38.442Z,98779.63
2019-02-05T05:44:42.293Z,98797.69
2019-02-05T05:49:45.989Z,98793.55
2019-02-05T05:54:49.667Z,98808.28
2019-02-05T05:59:53.874Z,98809.19
2019-02-05T06:04:57.573Z,98824.03
2019-02-05T06:10:01.232Z,98829.25
2019-02-05T06:15:07.234Z,98825.39
2019-02-05T06:20:14.259Z,98836.64
2019-02-05T06:25:18.432Z,98830.33
2019-02-05T06:30:23.041Z,98826.71
2019-02-05T06:35:27.460Z,98829.94
2019-02-05T06:40:34.862Z,98823.96
2019-02-05T06:45:41.475Z,98840.01
2019-02-05T06:50:44.741Z,98827.23
2019-02-05T06:55:48.765Z,98832.39
2019-02-05T07:00:52.556Z,98824.45
2019-02-05T07:05:56.532Z,98824.21
2019-02-05T07:11:00.450Z,98829.34
2019-02-05T07:16:04.310Z,98830.03
2019-02-05T07:21:08.185Z,98831.72
2019-02-05T07:26:12.395Z,98838.45
2019-02-05T07:31:16.473Z,98829.74
2019-02-05T07:36:20.857Z,98828.28
2019-02-05T07:41:24.655Z,98831.83
2019-02-05T07:46:28.650Z,98832.66
2019-02-05T07:51:32.613Z,98833.22
2019-02-05T07:56:36.520Z,98822.91
2019-02-05T08:01:40.420Z,98815.72
2019-02-05T08:06:44.201Z,98815.72
2019-02-05T08:11:48.971Z,98826.39
2019-02-05T08:16:52.893Z,98826.13
2019-02-05T08:21:57.106Z,98820.68
2019-02-05T08:27:02.268Z,98826.93
2019-02-05T08:32:06.183Z,98822.88
2019-02-05T08:37:10.315Z,98826.84
2019-02-05T08:42:14.602Z,98828.72
2019-02-05T08:47:18.873Z,98835.04
2019-02-05T08:52:22.906Z,98826.42
2019-02-05T08:57:26.895Z,98821.33
2019-02-05T09:02:30.722Z,98827.34
2019-02-05T09:07:34.546Z,98830.23
2019-02-05T09:12:40.501Z,98830.23
2019-02-05T09:17:44.334Z,98835.56
2019-02-05T09:22:48.488Z,98834.16
2019-02-05T09:27:52.597Z,98830.82
2019-02-05T09:32:57.906Z,98829.61
2019-02-05T09:38:02.105Z,98821.52
2019-02-05T09:43:05.870Z,98816.58
2019-02-05T09:48:10.062Z,98814.94
2019-02-05T09:53:14.668Z,98813.99
2019-02-05T09:58:18.701Z,98807.55
2019-02-05T10:03:22.562Z,98807.55
2019-02-05T10:08:27.519Z,98790.10
2019-02-05T10:13:31.709Z,98790.10
2019-02-05T10:18:36.414Z,98795.26
2019-02-05T10:23:40.336Z,98779.69
2019-02-05T10:28:45.046Z,98781.16
2019-02-05T10:33:55.387Z,98784.83
2019-02-05T10:38:58.123Z,98787.55
2019-02-05T10:44:05.521Z,98777.12
2019-02-05T10:49:09.221Z,98781.50
2019-02-05T10:54:12.919Z,98764.28
2019-02-05T10:59:20.442Z,98766.00
2019-02-05T11:04:24.470Z,98756.37
2019-02-05T11:09:28.461Z,98752.45
2019-02-05T11:14:33.439Z,98740.11
2019-02-05T11:19:39.013Z,98744.30
2019-02-05T11:24:43.221Z,98728.27
2019-02-05T11:29:49.086Z,98718.02
2019-02-05T11:34:53.014Z,98708.42
2019-02-05T11:39:57.624Z,98700.66
2019-02-05T11:45:02.016Z,98705.30
2019-02-05T11:50:10.356Z,98689.50
2019-02-05T11:55:20.363Z,98685.60
2019-02-05T12:00:44.171Z,98689.77
2019-02-05T12:05:48.429Z,98683.10
2019-02-05T12:10:53.273Z,98674.90
2019-02-05T12:15:57.173Z,98673.41
2019-02-05T12:21:01.263Z,98661.32
2019-02-05T12:26:05.760Z,98659.64
2019-02-05T12:31:09.635Z,98650.83
2019-02-05T12:36:13.581Z,98652.02
2019-02-05T12:41:18.449Z,98649.83
2019-02-05T12:46:23.509Z,98648.77
2019-02-05T12:51:27.481Z,98650.29
2019-02-05T12:56:34.782Z,98633.36
2019-02-05T13:01:38.805Z,98644.33
2019-02-05T13:06:42.585Z,98634.66
2019-02-05T13:11:50.269Z,98633.69
2019-02-05T13:16:54.980Z,98624.33
2019-02-05T13:22:00.623Z,98625.13
2019-02-05T13:27:04.661Z,98620.22
2019-02-05T13:32:08.445Z,98622.30
2019-02-05T13:37:12.152Z,98620.80
2019-02-05T13:42:16.755Z,98623.49
2019-02-05T13:47:21.157Z,98620.67
2019-02-05T13:52:24.889Z,98614.55
2019-02-05T13:57:28.579Z,98616.65
2019-02-05T14:02:32.386Z,98617.50
2019-02-05T14:07:39.472Z,98615.81
2019-02-05T14:12:45.251Z,98618.29
2019-02-05T14:17:49.295Z,98616.27
2019-02-05T14:22:54.177Z,98615.24
2019-02-05T14:27:57.968Z,98612.48
2019-02-05T14:33:01.910Z,98607.60
2019-02-05T14:38:07.420Z,98612.42
2019-02-05T14:43:12.282Z,98609.05
2019-02-05T14:48:16.779Z,98610.48
2019-02-05T14:53:20.484Z,98613.55
2019-02-05T14:58:24.287Z,98619.59
2019-02-05T15:03:28.253Z,98617.00
2019-02-05T15:08:31.958Z,98617.00
2019-02-05T15:13:35.997Z,98626.63
2019-02-05T15:18:39.824Z,98621.45
2019-02-05T15:23:43.712Z,98625.80
2019-02-05T15:28:48.356Z,98626.98
2019-02-05T15:33:58.004Z,98626.47
2019-02-05T15:39:01.953Z,98641.70
2019-02-05T15:44:08.552Z,98640.31
2019-02-05T15:49:12.246Z,98658.63
2019-02-05T15:54:16.189Z,98668.47
2019-02-05T15:59:20.214Z,98666.95
2019-02-05T16:04:24.110Z,98673.33
2019-02-05T16:09:29.072Z,98660.00
2019-02-05T16:14:32.871Z,98683.69
2019-02-05T16:19:36.767Z,98681.00
2019-02-05T16:24:41.507Z,98676.85
2019-02-05T16:29:45.280Z,98684.81
2019-02-05T16:34:49.254Z,98670.36
2019-02-05T16:39:53.149Z,98673.45
2019-02-05T16:44:57.190Z,98644.56
2019-02-05T16:50:02.750Z,98652.34
2019-02-05T16:55:07.188Z,98643.11
2019-02-05T17:00:25.590Z,98625.98
2019-02-05T17:05:32.880Z,98620.76
2019-02-05T17:10:36.961Z,98633.05
2019-02-05T17:15:41.087Z,98631.06
2019-02-05T17:20:44.921Z,98628.69
2019-02-05T17:25:48.783Z,98631.02
2019-02-05T17:30:53.958Z,98638.59
2019-02-05T17:35:58.326Z,98646.52
2019-02-05T17:41:04.395Z,98638.39
2019-02-05T17:46:08.775Z,98650.31
2019-02-05T17:51:12.573Z,98648.31
2019-02-05T17:56:16.438Z,98647.02
2019-02-05T18:01:20.666Z,98637.81
2019-02-05T18:06:25.199Z,98616.57
2019-02-05T18:11:29.133Z,98608.99
2019-02-05T18:16:32.951Z,98599.47
2019-02-05T18:21:37.602Z,98628.16
2019-02-05T18:26:41.461Z,98636.83
2019-02-05T18:31:45.527Z,98633.04
2019-02-05T18:36:49.976Z,98638.27
2019-02-05T18:41:53.875Z,98631.41
2019-02-05T18:46:58.468Z,98650.35
2019-02-05T18:52:03.622Z,98647.28
2019-02-05T18:57:07.815Z,98633.95
2019-02-05T19:02:12.959Z,98634.47
2019-02-05T19:07:17.685Z,98628.87
2019-02-05T19:12:21.611Z,98631.61
2019-02-05T19:17:25.506Z,98618.23
2019-02-05T19:22:29.310Z,98619.88
2019-02-05T19:27:33.687Z,98618.98
2019-02-05T19:32:39.612Z,98617.34
2019-02-05T19:37:43.940Z,98619.31
2019-02-05T19:42:47.846Z,98626.38
2019-02-05T19:47:52.026Z,98631.42
2019-02-05T19:52:55.906Z,98628.87
2019-02-05T19:58:00.207Z,98636.47
2019-02-05T20:03:04.107Z,98632.47
2019-02-05T20:08:09.052Z,98647.47
2019-02-05T20:13:12.764Z,98652.16
2019-02-05T20:18:16.643Z,98662.77
2019-02-05T20:23:20.401Z,98652.27
2019-02-05T20:28:24.448Z,98646.16
2019-02-05T20:33:28.679Z,98653.53
2019-02-05T20:38:32.870Z,98669.36
2019-02-05T20:43:36.883Z,98639.08
2019-02-05T20:48:41.162Z,98652.44
2019-02-05T20:53:45.126Z,98638.02
2019-02-05T20:58:52.513Z,98612.02
2019-02-05T21:04:01.317Z,98601.03
2019-02-05T21:09:26.179Z,98595.62
2019-02-05T21:14:29.909Z,98586.25
2019-02-05T21:19:37.093Z,98570.55
2019-02-05T21:24:43.662Z,98573.27
2019-02-05T21:29:49.217Z,98561.56
2019-02-05T21:34:57.683Z,98548.22
2019-02-05T21:40:02.865Z,98533.41
2019-02-05T21:45:09.294Z,98519.58
2019-02-05T21:50:16.550Z,98514.89
2019-02-05T21:55:21.650Z,98516.53
2019-02-05T22:00:29.213Z,98520.50
2019-02-05T22:05:36.902Z,98526.80
2019-02-05T22:10:41.486Z,98506.42
2019-02-05T22:15:45.637Z,98492.17
2019-02-05T22:20:49.830Z,98487.86
2019-02-05T22:25:54.424Z,98485.00
2019-02-05T22:30:58.445Z,98503.55
2019-02-05T22:36:02.956Z,98491.64
2019-02-05T22:41:06.926Z,98490.21
2019-02-05T22:46:10.764Z,98480.83
2019-02-05T22:51:15.274Z,98486.79
2019-02-05T22:56:19.066Z,98489.14
2019-02-05T23:01:46.605Z,98492.02
2019-02-05T23:07:20.342Z,98502.27
2019-02-05T23:12:28.286Z,98474.34
2019-02-05T23:17:32.011Z,98450.74
2019-02-05T23:22:36.432Z,98453.80
2019-02-05T23:27:40.860Z,98457.25
2019-02-05T23:32:44.887Z,98444.81
2019-02-05T23:37:48.712Z,98429.67
2019-02-05T23:42:52.993Z,98443.00
2019-02-05T23:47:57.173Z,98445.69
2019-02-05T23:53:01.869Z,98430.54
2019-02-05T23:58:05.696Z,98432.00
